KAFF/AFF METAR and TAF weather

Enter ICAO airport designator
Station Type Date Time Source
KAFF METAR 2019/08/22 08:58 UTC NOAA

KAFF 220858Z AUTO 18004KT 10SM OVC011 16/15 A3019 RMK AO2 OVC V BKN SLP129 T01580145 58015


Station Type Date Time Source
KAFF Decoded METAR 2019/08/22 08:58 UTC NOAA

Station name not available
Aug 22, 2019 - 04:58 AM EDT / 2019.08.22 0858 UTC
Wind: from the S (180 degrees) at 5 MPH (4 KT):0
Visibility: 10 mile(s):0
Sky conditions: overcast
Temperature: 60.4 F (15.8 C)
Dew Point: 58.1 F (14.5 C)
Relative Humidity: 91%
Pressure (altimeter): 30.19 in. Hg (1022 hPa)
Pressure tendency: 0.04 inches (1.5 hPa) lower than three hours ago
ob: KAFF 220858Z AUTO 18004KT 10SM OVC011 16/15 A3019 RMK AO2 OVC V BKN SLP129 T01580145 58015
cycle: 9

Station Type Date Time Source
KAFF TAF 2019/08/21 19:39 UTC NOAA

TAF TAF COR KAFF 211935Z 2119/2301 15012KT 9999 VCTS BKN050CB BKN120 QNH3020INS
TEMPO 2120/2124 VRB25G40KT 4800 -TSRAGR BKN030CB OVC080
BECMG 2123/2124 15009KT 9999 -SHRA VCTS SCT030 BKN060CB BKN120 QNH3022INS
TEMPO 2200/2203 VRB15G25KT 8000 -TSRA
BECMG 2203/2204 VRB06KT 9999 NSW SCT040 BKN100 QNH3019INS
BECMG 2211/2212 15007KT 9999 BKN015 520404 QNH3017INS
BECMG 2215/2216 15009KT 9999 SCT020 SCT100 QNH3015INS
BECMG 2218/2219 17012KT 9999 SCT080 BKN150 QNH3015INS TS OMTNS SW-W
BECMG 2220/2221 17012G18KT 9999 VCTS BKN080CB BKN150 QNH3012INS
TEMPO 2221/2224 VRB15G25KT 8000 -TSRA BKN060CB
BECMG 2300/2301 19012KT 9999 VCTS BKN050CB QNH3020INS TX29/2120Z TN13/2212Z LAST NO
AMDS AFT 2120 NEXT 2211

Example: see airport list